Hovedside
METAR-TAF:

METAR-TAF

Lufthavner :

Kuwait, Kuwait

breddegrad: 29-13N, lengdegrad: 047-59E, høyde over havet: 55 m

Gjeldene værobservasjon

Denne rapporten ble laget for 27 minutter siden, klokken 19:00 UTC
Vind 18 kt fra Nord-nordvest
Temperatur 19°C
Luftfuktighet 30%
Trykk 1014 hPa
Sikt: 0500 m

METAR: OKBK 191900Z 33018KT 0500 R33L/M0025N R33R/P1500U DS NSC 19/01 Q1014 NOSIG

Tid: 22:27 (19:27 UTC)

Varsel

Denne rapporten ble laget for 2 timer og 42 minutter siden, klokken 16:45 UTC
Varsel gyldig fra 19. klokken 18 UTC til 20. klokken 24 UTC
Vind 20 kt fra Sør-sørøst med vindkast opp mot 30 kt
Sikt: 2000 m
støvdrev
Blir
fra 19. klokken 20 UTC til 19. klokken 22 UTC
Vind 15 kt fra Nord-nordvest med vindkast opp mot 25 kt
Midlertidig
fra 19. klokken 18 UTC til 20. klokken 03 UTC
Sikt: 0500 m
Få skyer i en høyde av 3000 ft

TAF: OKBK 191645Z 1918/2024 15020G30KT 2000 BLDU NSC BECMG 1920/1922 33015G25KT TEMPO 1918/2003 0500 DS FEW030

Værobservasjoner og værvarsel for over 4000 flyplasser (METAR- og TAF-rapporter).

Tilgjengelige stasjoner er representert av de røde og gule prikkene på kartet.

Hold musepekeren over prikken for å se navnet på stasjonen.

Klikk så for å se værobservasjoner og -varsler.

For å forandre kartet kan du klikke på den grønne knappen med svart kryss for å zoome inn, på den grønne knappen med strek for å zoome ut, eller på de grønne pilene for å se tilstøtende kart.


METAR-TAF: